sensor_id;sensor_type;location;lat;lon;timestamp;pressure;altitude;pressure_sealevel;temperature;humidity
38289;BME280;24092;53.370;-6.588;2022-12-20T00:01:09;99018.46;;;2.18;100.00
38289;BME280;24092;53.370;-6.588;2022-12-20T00:03:36;99016.67;;;2.33;100.00
38289;BME280;24092;53.370;-6.588;2022-12-20T00:06:04;99021.49;;;1.88;100.00
38289;BME280;24092;53.370;-6.588;2022-12-20T00:08:31;99025.36;;;1.76;100.00
38289;BME280;24092;53.370;-6.588;2022-12-20T00:10:59;99025.24;;;1.90;100.00
38289;BME280;24092;53.370;-6.588;2022-12-20T00:13:28;99022.73;;;2.15;100.00
38289;BME280;24092;53.370;-6.588;2022-12-20T00:16:05;99017.21;;;1.80;100.00
38289;BME280;24092;53.370;-6.588;2022-12-20T00:18:33;99019.10;;;1.87;100.00
38289;BME280;24092;53.370;-6.588;2022-12-20T00:21:00;99019.14;;;1.78;100.00
38289;BME280;24092;53.370;-6.588;2022-12-20T00:23:28;99019.60;;;1.41;100.00
38289;BME280;24092;53.370;-6.588;2022-12-20T00:26:00;99020.40;;;2.08;100.00
38289;BME280;24092;53.370;-6.588;2022-12-20T00:28:27;99022.65;;;1.99;100.00
38289;BME280;24092;53.370;-6.588;2022-12-20T00:30:54;99015.06;;;2.36;100.00
38289;BME280;24092;53.370;-6.588;2022-12-20T00:33:22;99015.41;;;2.31;100.00
38289;BME280;24092;53.370;-6.588;2022-12-20T00:35:49;99015.54;;;1.95;100.00
38289;BME280;24092;53.370;-6.588;2022-12-20T00:38:15;99015.82;;;2.05;100.00
38289;BME280;24092;53.370;-6.588;2022-12-20T00:40:43;99016.41;;;2.19;100.00
38289;BME280;24092;53.370;-6.588;2022-12-20T00:43:10;99010.73;;;2.43;100.00
38289;BME280;24092;53.370;-6.588;2022-12-20T00:45:37;99006.92;;;1.67;100.00
38289;BME280;24092;53.370;-6.588;2022-12-20T00:48:05;99001.06;;;2.04;100.00
38289;BME280;24092;53.370;-6.588;2022-12-20T00:50:32;99013.52;;;2.07;100.00
38289;BME280;24092;53.370;-6.588;2022-12-20T00:52:59;99011.87;;;2.14;100.00
38289;BME280;24092;53.370;-6.588;2022-12-20T00:55:26;99011.23;;;2.41;100.00
38289;BME280;24092;53.370;-6.588;2022-12-20T00:57:53;99013.39;;;2.52;100.00
38289;BME280;24092;53.370;-6.588;2022-12-20T01:00:20;99010.44;;;2.59;100.00
38289;BME280;24092;53.370;-6.588;2022-12-20T01:02:47;99014.54;;;2.40;100.00
38289;BME280;24092;53.370;-6.588;2022-12-20T01:05:15;99016.76;;;2.72;100.00
38289;BME280;24092;53.370;-6.588;2022-12-20T01:07:42;99016.32;;;2.32;100.00
38289;BME280;24092;53.370;-6.588;2022-12-20T01:10:09;99015.81;;;2.45;100.00
38289;BME280;24092;53.370;-6.588;2022-12-20T01:12:36;99018.39;;;2.51;100.00
38289;BME280;24092;53.370;-6.588;2022-12-20T01:15:05;99018.83;;;2.52;100.00
38289;BME280;24092;53.370;-6.588;2022-12-20T01:17:33;99022.88;;;2.72;100.00
38289;BME280;24092;53.370;-6.588;2022-12-20T01:20:00;99011.78;;;3.32;100.00
38289;BME280;24092;53.370;-6.588;2022-12-20T01:22:27;99014.93;;;2.27;100.00
38289;BME280;24092;53.370;-6.588;2022-12-20T01:24:54;99021.00;;;2.89;100.00
38289;BME280;24092;53.370;-6.588;2022-12-20T01:27:21;99018.34;;;2.97;100.00
38289;BME280;24092;53.370;-6.588;2022-12-20T01:29:48;99019.15;;;2.82;100.00
38289;BME280;24092;53.370;-6.588;2022-12-20T01:32:15;99017.00;;;2.26;100.00
38289;BME280;24092;53.370;-6.588;2022-12-20T01:34:43;99019.04;;;2.31;100.00
38289;BME280;24092;53.370;-6.588;2022-12-20T01:37:10;99021.67;;;2.26;100.00
38289;BME280;24092;53.370;-6.588;2022-12-20T01:39:37;99024.23;;;2.48;100.00
38289;BME280;24092;53.370;-6.588;2022-12-20T01:42:04;99020.26;;;2.36;100.00
38289;BME280;24092;53.370;-6.588;2022-12-20T01:45:12;99022.29;;;2.54;100.00
38289;BME280;24092;53.370;-6.588;2022-12-20T01:47:45;99020.67;;;2.37;100.00
38289;BME280;24092;53.370;-6.588;2022-12-20T01:50:12;99019.27;;;2.33;100.00
38289;BME280;24092;53.370;-6.588;2022-12-20T01:52:42;99027.05;;;2.18;100.00
38289;BME280;24092;53.370;-6.588;2022-12-20T01:55:15;99022.91;;;1.89;100.00
38289;BME280;24092;53.370;-6.588;2022-12-20T01:57:47;99023.16;;;1.93;100.00
38289;BME280;24092;53.370;-6.588;2022-12-20T02:00:16;99024.79;;;1.91;100.00
38289;BME280;24092;53.370;-6.588;2022-12-20T02:02:45;99031.27;;;2.08;100.00
38289;BME280;24092;53.370;-6.588;2022-12-20T02:08:38;99037.07;;;1.98;100.00
38289;BME280;24092;53.370;-6.588;2022-12-20T02:11:13;99039.26;;;1.73;100.00
38289;BME280;24092;53.370;-6.588;2022-12-20T02:13:49;99040.84;;;2.23;100.00
38289;BME280;24092;53.370;-6.588;2022-12-20T02:16:23;99037.84;;;2.08;100.00
38289;BME280;24092;53.370;-6.588;2022-12-20T02:18:59;99039.64;;;1.99;100.00
38289;BME280;24092;53.370;-6.588;2022-12-20T02:21:29;99042.08;;;2.14;100.00
38289;BME280;24092;53.370;-6.588;2022-12-20T02:26:22;99039.25;;;4.02;100.00
38289;BME280;24092;53.370;-6.588;2022-12-20T02:29:09;99039.03;;;1.87;100.00
38289;BME280;24092;53.370;-6.588;2022-12-20T02:31:45;99040.56;;;1.71;100.00
38289;BME280;24092;53.370;-6.588;2022-12-20T02:34:15;99036.40;;;2.03;100.00
38289;BME280;24092;53.370;-6.588;2022-12-20T02:36:43;99041.67;;;1.82;100.00
38289;BME280;24092;53.370;-6.588;2022-12-20T02:39:11;99040.98;;;1.59;100.00
38289;BME280;24092;53.370;-6.588;2022-12-20T02:41:41;99039.41;;;1.77;100.00
38289;BME280;24092;53.370;-6.588;2022-12-20T02:44:16;99038.48;;;1.61;100.00
38289;BME280;24092;53.370;-6.588;2022-12-20T02:46:46;99043.06;;;1.59;100.00
38289;BME280;24092;53.370;-6.588;2022-12-20T02:49:17;99042.19;;;1.58;100.00
38289;BME280;24092;53.370;-6.588;2022-12-20T02:51:48;99048.22;;;2.08;100.00
38289;BME280;24092;53.370;-6.588;2022-12-20T02:54:18;99049.96;;;1.57;100.00
38289;BME280;24092;53.370;-6.588;2022-12-20T02:56:50;99056.14;;;1.82;100.00
38289;BME280;24092;53.370;-6.588;2022-12-20T02:59:24;99050.36;;;1.59;100.00
38289;BME280;24092;53.370;-6.588;2022-12-20T03:01:54;99052.56;;;2.14;100.00
38289;BME280;24092;53.370;-6.588;2022-12-20T03:04:23;99056.44;;;2.12;100.00
38289;BME280;24092;53.370;-6.588;2022-12-20T03:07:01;99064.23;;;1.92;100.00
38289;BME280;24092;53.370;-6.588;2022-12-20T03:09:30;99065.03;;;2.13;100.00
38289;BME280;24092;53.370;-6.588;2022-12-20T03:11:58;99065.69;;;2.14;100.00
38289;BME280;24092;53.370;-6.588;2022-12-20T03:14:26;99062.92;;;1.89;100.00
38289;BME280;24092;53.370;-6.588;2022-12-20T03:16:54;99062.99;;;1.99;100.00
38289;BME280;24092;53.370;-6.588;2022-12-20T03:19:21;99063.15;;;2.38;100.00
38289;BME280;24092;53.370;-6.588;2022-12-20T03:21:49;99057.53;;;1.94;100.00
38289;BME280;24092;53.370;-6.588;2022-12-20T03:24:17;99053.10;;;2.32;100.00
38289;BME280;24092;53.370;-6.588;2022-12-20T03:26:44;99051.13;;;1.87;100.00
38289;BME280;24092;53.370;-6.588;2022-12-20T03:29:11;99059.59;;;2.06;100.00
38289;BME280;24092;53.370;-6.588;2022-12-20T03:31:38;99064.46;;;1.90;100.00
38289;BME280;24092;53.370;-6.588;2022-12-20T03:34:05;99065.78;;;1.68;100.00
38289;BME280;24092;53.370;-6.588;2022-12-20T03:36:32;99073.15;;;1.59;100.00
38289;BME280;24092;53.370;-6.588;2022-12-20T03:38:59;99070.06;;;1.40;100.00
38289;BME280;24092;53.370;-6.588;2022-12-20T03:41:27;99066.81;;;1.22;100.00
38289;BME280;24092;53.370;-6.588;2022-12-20T03:43:54;99068.75;;;1.34;100.00
38289;BME280;24092;53.370;-6.588;2022-12-20T03:46:21;99065.66;;;0.90;100.00
38289;BME280;24092;53.370;-6.588;2022-12-20T03:48:48;99065.87;;;0.93;100.00
38289;BME280;24092;53.370;-6.588;2022-12-20T03:51:15;99069.44;;;1.15;100.00
38289;BME280;24092;53.370;-6.588;2022-12-20T03:53:42;99065.32;;;0.89;100.00
38289;BME280;24092;53.370;-6.588;2022-12-20T03:56:09;99065.18;;;1.05;100.00
38289;BME280;24092;53.370;-6.588;2022-12-20T03:58:36;99068.79;;;1.11;100.00
38289;BME280;24092;53.370;-6.588;2022-12-20T04:01:16;99073.02;;;1.16;100.00
38289;BME280;24092;53.370;-6.588;2022-12-20T04:03:43;99075.45;;;1.01;100.00
38289;BME280;24092;53.370;-6.588;2022-12-20T04:06:10;99075.60;;;1.34;100.00
38289;BME280;24092;53.370;-6.588;2022-12-20T04:08:37;99074.33;;;0.83;100.00
38289;BME280;24092;53.370;-6.588;2022-12-20T04:11:05;99076.02;;;1.11;100.00
38289;BME280;24092;53.370;-6.588;2022-12-20T04:13:32;99077.30;;;1.25;100.00
38289;BME280;24092;53.370;-6.588;2022-12-20T04:15:59;99084.79;;;1.08;100.00
38289;BME280;24092;53.370;-6.588;2022-12-20T04:18:26;99090.56;;;1.25;100.00
38289;BME280;24092;53.370;-6.588;2022-12-20T04:20:53;99090.76;;;1.14;100.00
38289;BME280;24092;53.370;-6.588;2022-12-20T04:23:20;99092.87;;;0.78;100.00
38289;BME280;24092;53.370;-6.588;2022-12-20T04:25:47;99095.79;;;1.22;100.00
38289;BME280;24092;53.370;-6.588;2022-12-20T04:28:14;99099.85;;;1.14;100.00
38289;BME280;24092;53.370;-6.588;2022-12-20T04:30:41;99097.16;;;0.96;100.00
38289;BME280;24092;53.370;-6.588;2022-12-20T04:33:09;99097.09;;;1.56;100.00
38289;BME280;24092;53.370;-6.588;2022-12-20T04:35:37;99095.61;;;1.19;100.00
38289;BME280;24092;53.370;-6.588;2022-12-20T04:38:04;99103.65;;;1.14;100.00
38289;BME280;24092;53.370;-6.588;2022-12-20T04:40:31;99105.43;;;1.36;100.00
38289;BME280;24092;53.370;-6.588;2022-12-20T04:42:58;99106.96;;;0.54;100.00
38289;BME280;24092;53.370;-6.588;2022-12-20T04:45:25;99107.91;;;1.06;100.00
38289;BME280;24092;53.370;-6.588;2022-12-20T04:47:52;99107.35;;;0.61;100.00
38289;BME280;24092;53.370;-6.588;2022-12-20T04:50:19;99106.19;;;1.13;100.00
38289;BME280;24092;53.370;-6.588;2022-12-20T04:52:46;99110.16;;;0.73;100.00
38289;BME280;24092;53.370;-6.588;2022-12-20T04:55:14;99109.08;;;1.04;100.00
38289;BME280;24092;53.370;-6.588;2022-12-20T04:57:41;99117.92;;;1.10;100.00
38289;BME280;24092;53.370;-6.588;2022-12-20T05:00:09;99116.20;;;1.23;100.00
38289;BME280;24092;53.370;-6.588;2022-12-20T05:02:36;99116.37;;;0.89;100.00
38289;BME280;24092;53.370;-6.588;2022-12-20T05:05:03;99108.83;;;1.34;100.00
38289;BME280;24092;53.370;-6.588;2022-12-20T05:07:31;99112.87;;;1.14;100.00
38289;BME280;24092;53.370;-6.588;2022-12-20T05:09:58;99110.04;;;1.02;100.00
38289;BME280;24092;53.370;-6.588;2022-12-20T05:12:25;99112.85;;;0.89;100.00
38289;BME280;24092;53.370;-6.588;2022-12-20T05:14:52;99115.47;;;1.02;100.00
38289;BME280;24092;53.370;-6.588;2022-12-20T05:17:19;99117.90;;;0.83;100.00
38289;BME280;24092;53.370;-6.588;2022-12-20T05:19:46;99120.61;;;0.82;100.00
38289;BME280;24092;53.370;-6.588;2022-12-20T05:22:13;99121.26;;;1.27;100.00
38289;BME280;24092;53.370;-6.588;2022-12-20T05:24:40;99120.32;;;0.88;100.00
38289;BME280;24092;53.370;-6.588;2022-12-20T05:27:07;99120.95;;;1.22;100.00
38289;BME280;24092;53.370;-6.588;2022-12-20T05:29:35;99120.32;;;1.18;100.00
38289;BME280;24092;53.370;-6.588;2022-12-20T05:32:02;99121.11;;;1.23;100.00
38289;BME280;24092;53.370;-6.588;2022-12-20T05:34:29;99124.30;;;1.36;100.00
38289;BME280;24092;53.370;-6.588;2022-12-20T05:36:56;99124.12;;;0.99;100.00
38289;BME280;24092;53.370;-6.588;2022-12-20T05:39:23;99133.35;;;1.40;100.00
38289;BME280;24092;53.370;-6.588;2022-12-20T05:41:50;99135.14;;;0.98;100.00
38289;BME280;24092;53.370;-6.588;2022-12-20T05:44:17;99139.80;;;1.26;100.00
38289;BME280;24092;53.370;-6.588;2022-12-20T05:46:44;99145.52;;;1.02;100.00
38289;BME280;24092;53.370;-6.588;2022-12-20T05:49:11;99148.14;;;1.21;100.00
38289;BME280;24092;53.370;-6.588;2022-12-20T05:51:44;99144.56;;;1.18;100.00
38289;BME280;24092;53.370;-6.588;2022-12-20T05:54:11;99141.39;;;1.10;100.00
38289;BME280;24092;53.370;-6.588;2022-12-20T05:56:38;99140.53;;;0.89;100.00
38289;BME280;24092;53.370;-6.588;2022-12-20T05:59:05;99144.09;;;0.97;100.00
38289;BME280;24092;53.370;-6.588;2022-12-20T06:01:32;99148.02;;;0.76;100.00
38289;BME280;24092;53.370;-6.588;2022-12-20T06:03:59;99149.39;;;0.52;100.00
38289;BME280;24092;53.370;-6.588;2022-12-20T06:06:27;99150.42;;;0.77;100.00
38289;BME280;24092;53.370;-6.588;2022-12-20T06:08:53;99155.25;;;0.18;100.00
38289;BME280;24092;53.370;-6.588;2022-12-20T06:11:21;99153.36;;;0.74;100.00
38289;BME280;24092;53.370;-6.588;2022-12-20T06:13:48;99154.49;;;0.57;100.00
38289;BME280;24092;53.370;-6.588;2022-12-20T06:16:15;99155.51;;;0.57;100.00
38289;BME280;24092;53.370;-6.588;2022-12-20T06:18:42;99157.48;;;0.74;100.00
38289;BME280;24092;53.370;-6.588;2022-12-20T06:21:10;99150.59;;;0.29;100.00
38289;BME280;24092;53.370;-6.588;2022-12-20T06:23:37;99153.45;;;0.64;100.00
38289;BME280;24092;53.370;-6.588;2022-12-20T06:26:05;99150.02;;;0.27;100.00
38289;BME280;24092;53.370;-6.588;2022-12-20T06:28:31;99151.29;;;0.46;100.00
38289;BME280;24092;53.370;-6.588;2022-12-20T06:30:59;99152.27;;;0.68;100.00
38289;BME280;24092;53.370;-6.588;2022-12-20T06:33:26;99156.84;;;0.47;100.00
38289;BME280;24092;53.370;-6.588;2022-12-20T06:35:53;99158.70;;;0.55;100.00
38289;BME280;24092;53.370;-6.588;2022-12-20T06:38:20;99157.81;;;0.89;100.00
38289;BME280;24092;53.370;-6.588;2022-12-20T06:40:47;99157.39;;;0.70;100.00
38289;BME280;24092;53.370;-6.588;2022-12-20T06:43:14;99161.01;;;0.43;100.00
38289;BME280;24092;53.370;-6.588;2022-12-20T06:45:42;99160.71;;;0.54;100.00
38289;BME280;24092;53.370;-6.588;2022-12-20T06:48:10;99162.85;;;0.58;100.00
38289;BME280;24092;53.370;-6.588;2022-12-20T06:50:38;99160.35;;;0.20;100.00
38289;BME280;24092;53.370;-6.588;2022-12-20T06:53:04;99161.81;;;0.21;100.00
38289;BME280;24092;53.370;-6.588;2022-12-20T06:55:32;99169.40;;;0.18;100.00
38289;BME280;24092;53.370;-6.588;2022-12-20T06:57:59;99174.00;;;-0.20;100.00
38289;BME280;24092;53.370;-6.588;2022-12-20T07:00:26;99170.96;;;0.52;100.00
38289;BME280;24092;53.370;-6.588;2022-12-20T07:02:53;99176.52;;;0.20;100.00
38289;BME280;24092;53.370;-6.588;2022-12-20T07:05:20;99182.30;;;-0.20;100.00
38289;BME280;24092;53.370;-6.588;2022-12-20T07:07:47;99187.09;;;-0.01;100.00
38289;BME280;24092;53.370;-6.588;2022-12-20T07:10:15;99186.32;;;-0.13;100.00
38289;BME280;24092;53.370;-6.588;2022-12-20T07:12:42;99201.85;;;-0.15;100.00
38289;BME280;24092;53.370;-6.588;2022-12-20T07:15:10;99197.34;;;-0.04;100.00
38289;BME280;24092;53.370;-6.588;2022-12-20T07:17:37;99194.42;;;-0.06;100.00
38289;BME280;24092;53.370;-6.588;2022-12-20T07:20:07;99189.58;;;-0.50;100.00
38289;BME280;24092;53.370;-6.588;2022-12-20T07:22:34;99188.41;;;0.25;100.00
38289;BME280;24092;53.370;-6.588;2022-12-20T07:25:01;99190.44;;;-0.06;100.00
38289;BME280;24092;53.370;-6.588;2022-12-20T07:27:28;99186.34;;;-0.06;100.00
38289;BME280;24092;53.370;-6.588;2022-12-20T07:29:56;99190.79;;;-0.20;100.00
38289;BME280;24092;53.370;-6.588;2022-12-20T07:32:23;99193.32;;;-0.31;100.00
38289;BME280;24092;53.370;-6.588;2022-12-20T07:34:50;99196.51;;;0.09;100.00
38289;BME280;24092;53.370;-6.588;2022-12-20T07:37:17;99204.79;;;-0.09;100.00
38289;BME280;24092;53.370;-6.588;2022-12-20T07:39:44;99209.66;;;-0.02;100.00
38289;BME280;24092;53.370;-6.588;2022-12-20T07:42:11;99204.13;;;-0.24;100.00
38289;BME280;24092;53.370;-6.588;2022-12-20T07:44:38;99213.59;;;-0.13;100.00
38289;BME280;24092;53.370;-6.588;2022-12-20T07:47:06;99212.34;;;-0.33;100.00
38289;BME280;24092;53.370;-6.588;2022-12-20T07:49:33;99219.46;;;-0.07;100.00
38289;BME280;24092;53.370;-6.588;2022-12-20T07:52:01;99220.08;;;-0.37;100.00
38289;BME280;24092;53.370;-6.588;2022-12-20T07:54:31;99222.36;;;-0.35;100.00
38289;BME280;24092;53.370;-6.588;2022-12-20T07:57:04;99225.23;;;0.07;100.00
38289;BME280;24092;53.370;-6.588;2022-12-20T07:59:36;99225.22;;;0.12;100.00
38289;BME280;24092;53.370;-6.588;2022-12-20T08:02:05;99223.29;;;-0.47;100.00
38289;BME280;24092;53.370;-6.588;2022-12-20T08:04:33;99228.28;;;-0.19;100.00
38289;BME280;24092;53.370;-6.588;2022-12-20T08:07:01;99233.16;;;-0.71;100.00
38289;BME280;24092;53.370;-6.588;2022-12-20T08:09:32;99232.26;;;-0.65;100.00
38289;BME280;24092;53.370;-6.588;2022-12-20T08:12:01;99238.42;;;-0.25;100.00
38289;BME280;24092;53.370;-6.588;2022-12-20T08:14:28;99236.15;;;0.01;100.00
38289;BME280;24092;53.370;-6.588;2022-12-20T08:16:55;99237.04;;;0.17;100.00
38289;BME280;24092;53.370;-6.588;2022-12-20T08:19:22;99238.50;;;-0.43;100.00
38289;BME280;24092;53.370;-6.588;2022-12-20T08:21:49;99241.53;;;-0.33;100.00
38289;BME280;24092;53.370;-6.588;2022-12-20T08:24:17;99249.98;;;-0.10;100.00
38289;BME280;24092;53.370;-6.588;2022-12-20T08:26:44;99257.35;;;-0.47;100.00
38289;BME280;24092;53.370;-6.588;2022-12-20T08:29:11;99258.04;;;-0.10;100.00
38289;BME280;24092;53.370;-6.588;2022-12-20T08:31:39;99263.24;;;-0.32;100.00
38289;BME280;24092;53.370;-6.588;2022-12-20T08:34:06;99260.52;;;0.05;100.00
38289;BME280;24092;53.370;-6.588;2022-12-20T08:36:33;99263.29;;;0.09;100.00
38289;BME280;24092;53.370;-6.588;2022-12-20T08:39:01;99268.30;;;0.18;100.00
38289;BME280;24092;53.370;-6.588;2022-12-20T08:41:28;99266.45;;;0.14;100.00
38289;BME280;24092;53.370;-6.588;2022-12-20T08:43:55;99269.27;;;-0.29;100.00
38289;BME280;24092;53.370;-6.588;2022-12-20T08:46:22;99272.06;;;-2.22;100.00
38289;BME280;24092;53.370;-6.588;2022-12-20T08:48:50;99280.68;;;0.08;100.00
38289;BME280;24092;53.370;-6.588;2022-12-20T08:51:18;99282.16;;;-0.13;100.00
38289;BME280;24092;53.370;-6.588;2022-12-20T08:53:45;99286.74;;;-0.31;100.00
38289;BME280;24092;53.370;-6.588;2022-12-20T08:56:14;99285.72;;;-0.01;100.00
38289;BME280;24092;53.370;-6.588;2022-12-20T08:58:43;99284.48;;;-0.48;100.00
38289;BME280;24092;53.370;-6.588;2022-12-20T09:01:12;99288.99;;;-0.22;100.00
38289;BME280;24092;53.370;-6.588;2022-12-20T09:03:39;99288.82;;;-0.62;100.00
38289;BME280;24092;53.370;-6.588;2022-12-20T09:06:08;99291.47;;;0.04;100.00
38289;BME280;24092;53.370;-6.588;2022-12-20T09:08:38;99297.56;;;-0.04;100.00
38289;BME280;24092;53.370;-6.588;2022-12-20T09:11:06;99291.90;;;-0.11;100.00
38289;BME280;24092;53.370;-6.588;2022-12-20T09:13:35;99289.20;;;-0.13;100.00
38289;BME280;24092;53.370;-6.588;2022-12-20T09:16:04;99288.87;;;0.07;100.00
38289;BME280;24092;53.370;-6.588;2022-12-20T09:18:32;99291.79;;;-0.06;100.00
38289;BME280;24092;53.370;-6.588;2022-12-20T09:21:00;99293.20;;;-0.07;100.00
38289;BME280;24092;53.370;-6.588;2022-12-20T09:23:27;99300.75;;;0.04;100.00
38289;BME280;24092;53.370;-6.588;2022-12-20T09:26:00;99290.48;;;0.12;100.00
38289;BME280;24092;53.370;-6.588;2022-12-20T09:28:27;99291.27;;;-0.30;100.00
38289;BME280;24092;53.370;-6.588;2022-12-20T09:30:57;99299.11;;;-0.13;100.00
38289;BME280;24092;53.370;-6.588;2022-12-20T09:33:24;99299.86;;;-0.17;100.00
38289;BME280;24092;53.370;-6.588;2022-12-20T09:35:51;99303.82;;;0.15;100.00
38289;BME280;24092;53.370;-6.588;2022-12-20T09:38:18;99302.71;;;-0.21;100.00
38289;BME280;24092;53.370;-6.588;2022-12-20T09:40:47;99307.85;;;0.11;100.00
38289;BME280;24092;53.370;-6.588;2022-12-20T09:43:16;99308.43;;;0.31;100.00
38289;BME280;24092;53.370;-6.588;2022-12-20T09:45:45;99310.11;;;0.06;100.00
38289;BME280;24092;53.370;-6.588;2022-12-20T09:48:16;99310.13;;;-0.02;100.00
38289;BME280;24092;53.370;-6.588;2022-12-20T09:50:49;99314.01;;;-0.41;100.00
38289;BME280;24092;53.370;-6.588;2022-12-20T09:53:27;99313.77;;;-0.24;100.00
38289;BME280;24092;53.370;-6.588;2022-12-20T09:56:02;99325.79;;;-0.13;100.00
38289;BME280;24092;53.370;-6.588;2022-12-20T09:58:43;99327.76;;;-0.36;100.00
38289;BME280;24092;53.370;-6.588;2022-12-20T10:01:16;99331.00;;;-0.21;100.00
38289;BME280;24092;53.370;-6.588;2022-12-20T10:03:44;99336.86;;;-0.19;100.00
38289;BME280;24092;53.370;-6.588;2022-12-20T10:06:19;99345.37;;;-0.32;100.00
38289;BME280;24092;53.370;-6.588;2022-12-20T10:08:53;99343.85;;;-0.05;100.00
38289;BME280;24092;53.370;-6.588;2022-12-20T10:11:51;99351.65;;;0.15;100.00
38289;BME280;24092;53.370;-6.588;2022-12-20T10:14:31;99348.72;;;0.18;100.00
38289;BME280;24092;53.370;-6.588;2022-12-20T10:17:07;99344.51;;;0.04;100.00
38289;BME280;24092;53.370;-6.588;2022-12-20T10:20:01;99351.75;;;0.02;100.00
38289;BME280;24092;53.370;-6.588;2022-12-20T10:22:36;99360.75;;;-0.07;100.00
38289;BME280;24092;53.370;-6.588;2022-12-20T10:25:15;99356.90;;;-0.06;100.00
38289;BME280;24092;53.370;-6.588;2022-12-20T10:27:44;99372.40;;;0.12;100.00
38289;BME280;24092;53.370;-6.588;2022-12-20T10:30:14;99368.06;;;-0.15;100.00
38289;BME280;24092;53.370;-6.588;2022-12-20T10:32:44;99367.51;;;0.19;100.00
38289;BME280;24092;53.370;-6.588;2022-12-20T10:35:22;99370.88;;;0.32;100.00
38289;BME280;24092;53.370;-6.588;2022-12-20T10:37:57;99371.04;;;0.38;100.00
38289;BME280;24092;53.370;-6.588;2022-12-20T10:40:27;99377.21;;;0.31;100.00
38289;BME280;24092;53.370;-6.588;2022-12-20T10:42:55;99379.49;;;0.64;100.00
38289;BME280;24092;53.370;-6.588;2022-12-20T10:45:30;99376.05;;;0.00;100.00
38289;BME280;24092;53.370;-6.588;2022-12-20T10:48:00;99382.70;;;0.53;100.00
38289;BME280;24092;53.370;-6.588;2022-12-20T10:50:27;99381.31;;;0.39;100.00
38289;BME280;24092;53.370;-6.588;2022-12-20T10:53:19;99387.13;;;0.15;100.00
38289;BME280;24092;53.370;-6.588;2022-12-20T10:55:47;99381.89;;;1.01;100.00
38289;BME280;24092;53.370;-6.588;2022-12-20T10:58:16;99381.65;;;0.41;100.00
38289;BME280;24092;53.370;-6.588;2022-12-20T11:00:44;99382.16;;;1.07;100.00
38289;BME280;24092;53.370;-6.588;2022-12-20T11:03:15;99381.88;;;1.34;100.00
38289;BME280;24092;53.370;-6.588;2022-12-20T11:06:00;99381.95;;;0.69;100.00
38289;BME280;24092;53.370;-6.588;2022-12-20T11:08:29;99383.86;;;0.89;100.00
38289;BME280;24092;53.370;-6.588;2022-12-20T11:11:11;99378.94;;;0.64;100.00
38289;BME280;24092;53.370;-6.588;2022-12-20T11:13:39;99378.29;;;0.76;100.00
38289;BME280;24092;53.370;-6.588;2022-12-20T11:16:24;99377.78;;;0.73;100.00
38289;BME280;24092;53.370;-6.588;2022-12-20T11:18:59;99372.90;;;0.73;100.00
38289;BME280;24092;53.370;-6.588;2022-12-20T11:21:33;99372.58;;;1.03;100.00
38289;BME280;24092;53.370;-6.588;2022-12-20T11:24:10;99376.91;;;1.00;100.00
38289;BME280;24092;53.370;-6.588;2022-12-20T11:26:51;99377.38;;;0.88;100.00
38289;BME280;24092;53.370;-6.588;2022-12-20T11:29:35;99377.13;;;1.17;100.00
38289;BME280;24092;53.370;-6.588;2022-12-20T11:32:17;99377.86;;;1.00;100.00
38289;BME280;24092;53.370;-6.588;2022-12-20T11:34:53;99371.91;;;1.15;100.00
38289;BME280;24092;53.370;-6.588;2022-12-20T11:37:26;99372.17;;;0.96;100.00
38289;BME280;24092;53.370;-6.588;2022-12-20T11:40:05;99373.30;;;1.01;100.00
38289;BME280;24092;53.370;-6.588;2022-12-20T11:42:50;99364.17;;;1.11;100.00
38289;BME280;24092;53.370;-6.588;2022-12-20T11:45:24;99354.34;;;1.24;100.00
38289;BME280;24092;53.370;-6.588;2022-12-20T11:48:08;99370.57;;;1.25;100.00
38289;BME280;24092;53.370;-6.588;2022-12-20T11:50:51;99368.57;;;0.87;100.00
38289;BME280;24092;53.370;-6.588;2022-12-20T11:53:31;99361.55;;;1.36;100.00
38289;BME280;24092;53.370;-6.588;2022-12-20T11:56:04;99354.56;;;0.88;100.00
38289;BME280;24092;53.370;-6.588;2022-12-20T11:58:45;99353.94;;;1.35;100.00
38289;BME280;24092;53.370;-6.588;2022-12-20T12:01:16;99355.56;;;0.88;100.00
38289;BME280;24092;53.370;-6.588;2022-12-20T12:03:49;99355.36;;;1.47;100.00
38289;BME280;24092;53.370;-6.588;2022-12-20T12:06:25;99342.20;;;1.50;100.00
38289;BME280;24092;53.370;-6.588;2022-12-20T12:09:00;99340.48;;;0.82;100.00
38289;BME280;24092;53.370;-6.588;2022-12-20T12:11:34;99351.22;;;0.77;100.00
38289;BME280;24092;53.370;-6.588;2022-12-20T12:14:03;99345.40;;;1.22;100.00
38289;BME280;24092;53.370;-6.588;2022-12-20T12:16:34;99361.15;;;1.30;100.00
38289;BME280;24092;53.370;-6.588;2022-12-20T12:19:04;99362.91;;;1.07;100.00
38289;BME280;24092;53.370;-6.588;2022-12-20T12:21:39;99359.71;;;1.43;100.00
38289;BME280;24092;53.370;-6.588;2022-12-20T12:24:13;99363.47;;;1.11;100.00
38289;BME280;24092;53.370;-6.588;2022-12-20T12:26:44;99359.19;;;1.41;100.00
38289;BME280;24092;53.370;-6.588;2022-12-20T12:29:13;99358.36;;;1.26;100.00
38289;BME280;24092;53.370;-6.588;2022-12-20T12:31:45;99356.31;;;1.42;100.00
38289;BME280;24092;53.370;-6.588;2022-12-20T12:34:28;99353.77;;;1.45;100.00
38289;BME280;24092;53.370;-6.588;2022-12-20T12:37:13;99358.72;;;1.43;100.00
38289;BME280;24092;53.370;-6.588;2022-12-20T12:40:02;99360.42;;;0.87;100.00
38289;BME280;24092;53.370;-6.588;2022-12-20T12:42:46;99363.35;;;1.50;100.00
38289;BME280;24092;53.370;-6.588;2022-12-20T12:45:24;99353.75;;;1.35;100.00
38289;BME280;24092;53.370;-6.588;2022-12-20T12:47:53;99343.57;;;1.67;100.00
38289;BME280;24092;53.370;-6.588;2022-12-20T12:50:26;99345.56;;;1.64;100.00
38289;BME280;24092;53.370;-6.588;2022-12-20T12:52:55;99345.90;;;1.35;100.00
38289;BME280;24092;53.370;-6.588;2022-12-20T12:55:56;99347.03;;;1.28;100.00
38289;BME280;24092;53.370;-6.588;2022-12-20T12:58:31;99337.73;;;1.50;100.00
38289;BME280;24092;53.370;-6.588;2022-12-20T13:01:00;99340.92;;;1.11;100.00
38289;BME280;24092;53.370;-6.588;2022-12-20T13:04:07;99341.37;;;1.40;100.00
38289;BME280;24092;53.370;-6.588;2022-12-20T13:06:54;99345.75;;;1.02;100.00
38289;BME280;24092;53.370;-6.588;2022-12-20T13:09:37;99339.62;;;1.06;100.00